Heat Index [SAI AWOS/ASOS Display]_________FAA Disclaimer: "Not for use in aviation at this time______________" Untitled Document
Potsdam Municipal/ Damon Field (PTD)
220
07:05
17/08/22
03
N/A
N/A
29.97
N/A
474
68(F), 20(C)
68(F), 20(C)
68 F
100%
CLR
10
N/A
N/A
N/A
07:05 Zulu Wind 220 at 03 Knots, Altimeter 29.97
METAR KPTD 220705Z AUTO 22003KT 10SM CLR 20/20 A2997 A02
METAR:
FAA Disclaimer--Advisory Use ONLY, not for flight info-- 1/17/2017: Current fuel prices are $4.34 per gallon for 100LL, and $3.55 per gallon for Jet A. AWOS phone 315-265-6106 updated 09/18/2014
INFO:
Wind Direction:
Wind Speed:
Wind Gust:
Wind Variable:
Altimeter:
Dens Alt:
Elev:
Temp:
Dwpt:
Wind Chill
Rel Humidity:
Ceiling:
Visibility:
Prsnt Wea:
PCPN:
Remarks:
How to read the WebPage